Time;durP1;ratioP1;P1;durP2;ratioP2;P2;SDS_P1;SDS_P2;PMS_P1;PMS_P2;Temp;Humidity;BMP_temperature;BMP_pressure;BME280_temperature;BME280_humidity;BME280_pressure;Samples;Min_cycle;Max_cycle;Signal;HPM_P1;HPM_P2
2022/03/02 00:01:44;;;;;;;13.25;5.85;;;10.60;99.90;;;;;;5046120;28;20029;-72
2022/03/02 00:04:11;;;;;;;19.55;5.88;;;10.60;99.90;;;;;;5033178;28;20128;-72
2022/03/02 00:06:37;;;;;;;15.55;6.03;;;10.60;99.90;;;;;;5032987;28;20215;-72
2022/03/02 00:09:04;;;;;;;13.05;5.55;;;10.60;99.90;;;;;;5039185;28;20130;-72
2022/03/02 00:11:30;;;;;;;20.30;5.40;;;10.60;99.90;;;;;;5040773;28;20116;-72
2022/03/02 00:13:58;;;;;;;14.05;5.07;;;10.60;99.90;;;;;;5032982;28;20045;-74
2022/03/02 00:16:24;;;;;;;16.50;5.15;;;10.60;99.90;;;;;;5030556;28;20109;-72
2022/03/02 00:18:50;;;;;;;15.55;4.75;;;10.50;99.90;;;;;;5050137;28;20464;-72
2022/03/02 00:21:18;;;;;;;16.23;4.97;;;10.50;99.90;;;;;;5030731;28;20107;-73
2022/03/02 00:23:44;;;;;;;15.38;4.85;;;10.50;99.90;;;;;;5017644;28;20057;-71
2022/03/02 00:26:10;;;;;;;13.45;4.35;;;10.50;99.90;;;;;;5031155;28;20037;-72
2022/03/02 00:28:36;;;;;;;17.00;4.57;;;10.50;99.90;;;;;;5033964;28;20554;-72
2022/03/02 00:31:02;;;;;;;13.60;4.53;;;10.50;99.90;;;;;;5037437;28;20047;-73
2022/03/02 00:33:29;;;;;;;17.33;5.20;;;10.40;99.90;;;;;;5038782;28;20037;-71
2022/03/02 00:35:55;;;;;;;14.18;4.90;;;10.40;99.90;;;;;;5059087;28;20064;-73
2022/03/02 00:38:21;;;;;;;16.67;5.00;;;10.40;99.90;;;;;;5038971;28;20465;-72
2022/03/02 00:40:47;;;;;;;20.42;5.05;;;10.40;99.90;;;;;;5054500;28;20064;-71
2022/03/02 00:43:13;;;;;;;20.08;5.43;;;10.40;99.90;;;;;;5057335;28;20388;-72
2022/03/02 00:45:38;;;;;;;14.93;5.13;;;10.40;99.90;;;;;;5055185;28;20044;-73
2022/03/02 00:48:06;;;;;;;15.18;5.25;;;10.30;99.90;;;;;;5049981;28;20550;-74
2022/03/02 00:50:32;;;;;;;14.02;5.55;;;10.30;99.90;;;;;;5038963;28;20094;-73
2022/03/02 00:52:58;;;;;;;19.52;5.68;;;10.20;99.90;;;;;;5039515;28;20060;-72
2022/03/02 00:55:25;;;;;;;18.25;5.55;;;10.20;99.90;;;;;;5036119;28;20064;-72
2022/03/02 00:57:52;;;;;;;13.82;4.93;;;10.20;99.90;;;;;;5038600;28;20092;-72
2022/03/02 01:00:18;;;;;;;17.40;5.10;;;10.20;99.90;;;;;;5050781;28;20485;-72
2022/03/02 01:02:46;;;;;;;17.23;5.43;;;10.20;99.90;;;;;;5055547;28;20041;-72
2022/03/02 01:05:12;;;;;;;13.30;5.05;;;10.10;99.90;;;;;;5037825;28;20065;-72
2022/03/02 01:07:39;;;;;;;17.02;5.82;;;10.10;99.90;;;;;;5043899;28;20040;-71
2022/03/02 01:10:07;;;;;;;14.55;4.68;;;10.10;99.90;;;;;;5058674;28;20037;-72
2022/03/02 01:12:34;;;;;;;15.63;4.90;;;10.00;99.90;;;;;;5022131;28;20034;-72
2022/03/02 01:15:01;;;;;;;22.90;5.05;;;10.10;99.90;;;;;;5040037;28;20045;-72
2022/03/02 01:17:27;;;;;;;11.73;3.80;;;10.10;99.90;;;;;;5040825;28;20492;-73
2022/03/02 01:19:53;;;;;;;13.88;5.05;;;10.10;99.90;;;;;;5042628;28;20064;-72
2022/03/02 01:22:21;;;;;;;12.95;4.40;;;10.00;99.90;;;;;;5039149;28;20053;-72
2022/03/02 01:24:47;;;;;;;12.10;3.78;;;10.10;99.90;;;;;;5043297;28;20042;-73
2022/03/02 01:27:13;;;;;;;8.05;3.45;;;10.10;99.90;;;;;;5049408;28;20087;-72
2022/03/02 01:29:40;;;;;;;9.63;3.20;;;10.20;99.90;;;;;;5052101;28;20025;-72
2022/03/02 01:32:08;;;;;;;16.83;3.33;;;10.40;99.90;;;;;;5054871;28;20037;-72
2022/03/02 01:34:36;;;;;;;11.48;3.83;;;10.50;99.90;;;;;;5039207;28;20088;-72
2022/03/02 01:37:03;;;;;;;12.15;3.72;;;10.50;99.90;;;;;;5033500;28;20037;-73
2022/03/02 01:39:30;;;;;;;15.82;3.20;;;10.50;99.90;;;;;;5046599;28;20399;-73
2022/03/02 01:41:57;;;;;;;12.20;3.40;;;10.50;99.90;;;;;;5041361;28;20362;-73
2022/03/02 01:44:24;;;;;;;16.00;3.83;;;10.40;99.90;;;;;;5037472;28;20052;-72
2022/03/02 01:46:52;;;;;;;12.25;3.75;;;10.30;99.90;;;;;;5042249;28;20029;-73
2022/03/02 01:49:19;;;;;;;10.98;3.55;;;10.30;99.90;;;;;;5040807;28;20034;-74
2022/03/02 01:51:46;;;;;;;12.68;4.65;;;10.40;99.90;;;;;;5038744;28;20029;-72
2022/03/02 01:54:12;;;;;;;14.18;3.45;;;10.40;99.90;;;;;;5041729;28;20037;-73
2022/03/02 01:56:38;;;;;;;8.40;3.38;;;10.40;99.90;;;;;;5042638;28;20038;-74
2022/03/02 01:59:05;;;;;;;6.90;2.80;;;10.40;99.90;;;;;;5044668;28;20538;-72
2022/03/02 02:01:32;;;;;;;12.75;3.47;;;10.30;99.90;;;;;;5046505;28;20030;-72
2022/03/02 02:03:58;;;;;;;11.48;3.30;;;10.30;99.90;;;;;;5042856;28;20437;-72
2022/03/02 02:06:25;;;;;;;15.32;4.30;;;10.30;99.90;;;;;;5057242;28;20037;-72
2022/03/02 02:08:52;;;;;;;14.27;3.75;;;10.20;99.90;;;;;;5063193;28;20049;-73
2022/03/02 02:11:19;;;;;;;14.25;4.13;;;10.20;99.90;;;;;;5038326;28;20095;-73
2022/03/02 02:13:46;;;;;;;14.13;4.05;;;10.10;99.90;;;;;;5038089;28;20682;-72
2022/03/02 02:16:14;;;;;;;14.18;4.45;;;10.10;99.90;;;;;;5026055;28;20086;-71
2022/03/02 02:18:40;;;;;;;10.88;3.72;;;10.10;99.90;;;;;;5058082;28;20040;-72
2022/03/02 02:21:08;;;;;;;18.00;5.22;;;10.00;99.90;;;;;;5045109;28;20094;-72
2022/03/02 02:23:39;;;;;;;11.95;4.10;;;10.10;99.90;;;;;;5023103;28;20041;-71
2022/03/02 02:26:06;;;;;;;17.92;4.32;;;10.00;99.90;;;;;;5035189;28;20404;-71
2022/03/02 02:28:33;;;;;;;9.27;3.70;;;10.10;99.90;;;;;;5058685;28;20397;-72
2022/03/02 02:31:01;;;;;;;12.00;4.05;;;10.10;99.90;;;;;;5052565;28;20041;-74
2022/03/02 02:33:28;;;;;;;10.90;4.07;;;10.10;99.90;;;;;;5041183;28;20048;-73
2022/03/02 02:35:55;;;;;;;11.73;3.50;;;10.20;99.90;;;;;;5055023;28;20037;-73
2022/03/02 02:38:22;;;;;;;18.17;4.45;;;10.10;99.90;;;;;;5056132;28;20105;-72
2022/03/02 02:40:50;;;;;;;9.05;3.50;;;10.10;99.90;;;;;;5056170;28;20036;-72
2022/03/02 02:43:21;;;;;;;11.88;4.00;;;10.00;99.90;;;;;;5040897;28;20049;-72
2022/03/02 02:45:47;;;;;;;16.45;4.10;;;10.10;99.90;;;;;;5047017;28;20037;-73
2022/03/02 02:48:13;;;;;;;13.98;4.30;;;10.10;99.90;;;;;;5052348;28;20056;-71
2022/03/02 02:50:40;;;;;;;13.23;4.20;;;10.10;99.90;;;;;;5041915;28;20034;-71
2022/03/02 02:53:09;;;;;;;14.60;4.97;;;10.10;99.90;;;;;;5039186;28;20043;-73
2022/03/02 02:55:36;;;;;;;10.45;4.43;;;10.20;99.90;;;;;;5057061;28;20036;-73
2022/03/02 02:58:03;;;;;;;13.15;4.55;;;10.10;99.90;;;;;;5040792;28;20049;-72
2022/03/02 03:00:33;;;;;;;11.98;4.05;;;10.20;99.90;;;;;;5045156;28;20033;-72
2022/03/02 03:03:03;;;;;;;14.23;5.05;;;10.30;99.90;;;;;;5058602;28;20040;-73
2022/03/02 03:05:31;;;;;;;12.48;5.18;;;10.30;99.90;;;;;;5041692;28;20432;-74
2022/03/02 03:08:02;;;;;;;16.90;4.68;;;10.30;99.90;;;;;;5043248;28;20037;-73
2022/03/02 03:10:30;;;;;;;10.95;4.35;;;10.40;99.90;;;;;;5045061;28;20416;-76
2022/03/02 03:12:56;;;;;;;13.18;4.15;;;10.40;99.90;;;;;;5040777;28;20040;-76
2022/03/02 03:15:23;;;;;;;12.20;4.32;;;10.40;99.90;;;;;;5061120;28;20044;-76
2022/03/02 03:17:51;;;;;;;14.93;4.25;;;10.30;99.90;;;;;;5064663;28;20044;-75
2022/03/02 03:20:20;;;;;;;11.57;4.25;;;10.40;99.90;;;;;;5050334;28;20049;-76
2022/03/02 03:22:47;;;;;;;9.75;3.88;;;10.30;99.90;;;;;;5046826;28;20145;-73
2022/03/02 03:25:14;;;;;;;12.07;4.05;;;10.30;99.90;;;;;;5059065;28;20049;-74
2022/03/02 03:27:42;;;;;;;14.00;4.45;;;10.20;99.90;;;;;;5048074;28;20726;-74
2022/03/02 03:30:10;;;;;;;11.43;4.75;;;10.20;99.90;;;;;;5061875;28;20036;-73
2022/03/02 03:32:37;;;;;;;10.25;4.65;;;10.20;99.90;;;;;;5042938;28;20075;-76
2022/03/02 03:35:05;;;;;;;12.50;4.43;;;10.20;99.90;;;;;;5063563;28;20038;-74
2022/03/02 03:37:32;;;;;;;15.15;5.40;;;10.10;99.90;;;;;;5045413;28;20046;-74
2022/03/02 03:39:58;;;;;;;15.68;4.45;;;10.10;99.90;;;;;;5022030;28;20046;-73
2022/03/02 03:42:25;;;;;;;18.88;5.05;;;10.10;99.90;;;;;;5058005;28;20491;-73
2022/03/02 03:44:51;;;;;;;14.77;5.80;;;10.10;99.90;;;;;;5055609;28;20048;-74
2022/03/02 03:47:18;;;;;;;19.85;6.20;;;10.10;99.90;;;;;;5060063;28;20160;-73
2022/03/02 03:49:44;;;;;;;17.38;6.05;;;10.10;99.90;;;;;;5045095;28;20026;-72
2022/03/02 03:52:10;;;;;;;17.92;5.13;;;10.20;99.90;;;;;;5042543;28;20082;-72
2022/03/02 03:54:37;;;;;;;12.07;4.38;;;10.20;99.90;;;;;;5059262;28;20071;-74
2022/03/02 03:57:04;;;;;;;15.20;4.68;;;10.30;99.90;;;;;;5056123;28;20451;-72
2022/03/02 03:59:31;;;;;;;14.48;5.18;;;10.30;99.90;;;;;;5043829;28;20045;-73
2022/03/02 04:01:57;;;;;;;19.35;4.63;;;10.30;99.90;;;;;;5042494;28;20053;-73
2022/03/02 04:04:23;;;;;;;12.65;5.07;;;10.40;99.90;;;;;;5043429;28;20033;-73
2022/03/02 04:06:49;;;;;;;15.35;4.60;;;10.40;99.90;;;;;;5055865;28;20037;-72
2022/03/02 04:09:15;;;;;;;11.65;4.55;;;10.40;99.90;;;;;;5040268;28;20032;-71
2022/03/02 04:11:42;;;;;;;16.27;5.03;;;10.50;99.90;;;;;;5035288;28;20087;-72
2022/03/02 04:14:08;;;;;;;15.07;5.03;;;10.50;99.90;;;;;;5055397;28;20465;-73
2022/03/02 04:16:35;;;;;;;17.90;5.25;;;10.50;99.90;;;;;;5054710;28;20029;-73
2022/03/02 04:19:04;;;;;;;19.33;6.20;;;10.40;99.90;;;;;;5052838;28;20762;-73
2022/03/02 04:21:31;;;;;;;16.45;6.40;;;10.40;99.90;;;;;;5038095;28;20503;-72
2022/03/02 04:23:57;;;;;;;17.40;6.18;;;10.30;99.90;;;;;;5040745;28;20061;-73
2022/03/02 04:26:23;;;;;;;15.68;6.47;;;10.30;99.90;;;;;;5038319;28;20594;-72
2022/03/02 04:28:50;;;;;;;17.25;6.50;;;10.30;99.90;;;;;;5037533;28;20037;-72
2022/03/02 04:31:16;;;;;;;15.35;6.20;;;10.20;99.90;;;;;;5036085;28;20037;-72
2022/03/02 04:33:42;;;;;;;19.83;6.20;;;10.30;99.90;;;;;;5043284;28;20063;-72
2022/03/02 04:36:09;;;;;;;20.45;6.72;;;10.30;99.90;;;;;;5041558;28;20148;-72
2022/03/02 04:38:36;;;;;;;13.23;5.93;;;10.30;99.90;;;;;;5056794;28;20037;-72
2022/03/02 04:41:03;;;;;;;21.13;6.95;;;10.40;99.90;;;;;;5039982;28;20037;-72
2022/03/02 04:43:29;;;;;;;19.02;6.93;;;10.40;99.90;;;;;;5041602;28;20097;-73
2022/03/02 04:45:57;;;;;;;18.85;6.53;;;10.50;99.90;;;;;;5038808;28;20116;-72
2022/03/02 04:48:24;;;;;;;18.73;6.57;;;10.50;99.90;;;;;;5054305;28;20099;-73
2022/03/02 04:50:49;;;;;;;16.05;6.50;;;10.50;99.90;;;;;;5042008;28;20091;-72
2022/03/02 04:53:16;;;;;;;18.23;7.57;;;10.50;99.90;;;;;;5039972;28;20041;-73
2022/03/02 04:55:44;;;;;;;14.70;6.93;;;10.50;99.90;;;;;;5059463;28;20032;-71
2022/03/02 04:58:11;;;;;;;16.98;7.50;;;10.50;99.90;;;;;;5038153;28;20373;-72
2022/03/02 05:00:38;;;;;;;22.77;8.05;;;10.50;99.90;;;;;;5042053;28;20041;-72
2022/03/02 05:03:06;;;;;;;19.92;7.70;;;10.60;99.90;;;;;;5041944;28;20048;-72
2022/03/02 05:05:35;;;;;;;22.00;6.75;;;10.60;99.90;;;;;;5038908;28;20033;-72
2022/03/02 05:08:01;;;;;;;16.50;7.18;;;10.70;99.90;;;;;;5042249;28;20121;-72
2022/03/02 05:10:29;;;;;;;17.52;7.30;;;10.70;99.90;;;;;;5036490;28;20481;-73
2022/03/02 05:12:56;;;;;;;16.83;6.93;;;10.80;99.90;;;;;;5037133;28;20116;-72
2022/03/02 05:15:23;;;;;;;21.27;8.73;;;10.80;99.90;;;;;;5052327;28;20234;-72
2022/03/02 05:17:49;;;;;;;22.20;7.53;;;10.90;99.90;;;;;;5045954;28;20037;-73
2022/03/02 05:20:17;;;;;;;19.30;7.18;;;10.90;99.90;;;;;;5042745;28;20041;-73
2022/03/02 05:22:44;;;;;;;18.15;7.15;;;11.00;99.90;;;;;;5037616;28;20044;-72
2022/03/02 05:25:13;;;;;;;18.50;7.00;;;11.00;99.90;;;;;;5039362;28;20081;-72
2022/03/02 05:27:41;;;;;;;17.33;7.50;;;11.00;99.90;;;;;;5054106;28;20079;-74
2022/03/02 05:30:09;;;;;;;17.38;7.88;;;11.10;99.90;;;;;;5038827;28;20030;-72
2022/03/02 05:32:35;;;;;;;17.92;7.95;;;11.20;99.90;;;;;;5054958;28;20083;-72
2022/03/02 05:35:00;;;;;;;22.55;7.53;;;11.10;99.90;;;;;;5036508;28;20041;-72
2022/03/02 05:37:27;;;;;;;15.90;7.60;;;11.20;99.90;;;;;;5037289;28;20509;-73
2022/03/02 05:39:53;;;;;;;20.45;8.18;;;11.20;99.90;;;;;;5046777;28;20047;-72
2022/03/02 05:42:19;;;;;;;14.98;7.65;;;11.20;99.90;;;;;;5050616;28;20045;-72
2022/03/02 05:44:46;;;;;;;18.63;7.22;;;11.30;99.90;;;;;;5035151;28;20162;-72
2022/03/02 05:47:14;;;;;;;16.05;7.75;;;11.20;99.90;;;;;;5051943;28;20048;-72
2022/03/02 05:49:40;;;;;;;19.02;8.48;;;11.20;99.90;;;;;;5044076;28;20140;-72
2022/03/02 05:52:06;;;;;;;20.08;7.57;;;11.20;99.90;;;;;;5023585;28;20048;-72
2022/03/02 05:54:32;;;;;;;17.25;8.05;;;11.20;99.90;;;;;;5036695;28;20037;-72
2022/03/02 05:56:58;;;;;;;19.88;8.20;;;11.20;99.90;;;;;;5054742;28;20071;-73
2022/03/02 05:59:24;;;;;;;22.30;8.07;;;11.20;99.90;;;;;;5054796;28;20057;-72
2022/03/02 06:01:50;;;;;;;21.55;8.05;;;11.10;99.90;;;;;;5038142;28;20022;-74
2022/03/02 06:04:16;;;;;;;22.25;9.10;;;11.10;99.90;;;;;;5039654;28;20037;-72
2022/03/02 06:06:42;;;;;;;24.13;9.98;;;11.20;99.90;;;;;;5054418;28;20048;-73
2022/03/02 06:09:11;;;;;;;19.15;8.07;;;11.30;99.90;;;;;;5037803;28;20042;-73
2022/03/02 06:11:38;;;;;;;16.80;8.65;;;11.30;99.90;;;;;;5038521;28;20098;-73
2022/03/02 06:14:06;;;;;;;20.05;8.60;;;11.30;99.90;;;;;;5037792;28;20361;-72
2022/03/02 06:16:33;;;;;;;19.30;8.82;;;11.40;99.90;;;;;;5056617;28;20029;-73
2022/03/02 06:18:59;;;;;;;20.38;9.38;;;11.40;99.90;;;;;;5057209;28;20045;-72
2022/03/02 06:21:29;;;;;;;18.15;8.52;;;11.40;99.90;;;;;;5042586;28;20037;-73
2022/03/02 06:23:55;;;;;;;19.98;8.48;;;11.40;99.90;;;;;;5046054;28;20202;-74
2022/03/02 06:26:25;;;;;;;23.45;8.90;;;11.50;99.90;;;;;;5039180;28;20061;-74
2022/03/02 06:28:52;;;;;;;19.50;9.20;;;11.40;99.90;;;;;;5037028;28;20033;-72
2022/03/02 06:31:18;;;;;;;21.15;9.18;;;11.50;99.90;;;;;;5039150;28;20045;-75
2022/03/02 06:33:48;;;;;;;20.88;8.98;;;11.60;99.90;;;;;;5044781;28;20030;-73
2022/03/02 06:36:15;;;;;;;20.42;9.15;;;11.60;99.90;;;;;;5039934;28;20072;-73
2022/03/02 06:38:42;;;;;;;21.25;9.10;;;11.70;99.90;;;;;;5044117;28;20064;-75
2022/03/02 06:41:14;;;;;;;21.67;9.52;;;11.70;99.90;;;;;;5042494;28;20061;-73
2022/03/02 06:43:56;;;;;;;25.60;10.15;;;11.60;99.90;;;;;;5043041;28;20068;-73
2022/03/02 06:46:44;;;;;;;19.08;9.13;;;11.60;99.90;;;;;;5043947;28;20045;-74
2022/03/02 06:49:13;;;;;;;22.42;9.20;;;11.60;99.90;;;;;;5042988;28;20095;-74
2022/03/02 06:51:43;;;;;;;20.85;9.68;;;11.60;99.90;;;;;;5039736;28;20481;-74
2022/03/02 06:54:12;;;;;;;18.17;8.65;;;11.70;99.90;;;;;;5062403;28;20560;-74
2022/03/02 06:56:49;;;;;;;20.92;10.02;;;11.70;99.90;;;;;;5042763;28;20095;-73
2022/03/02 06:59:28;;;;;;;18.58;9.23;;;11.70;99.90;;;;;;5054179;28;20045;-73
2022/03/02 07:01:59;;;;;;;23.05;9.35;;;11.70;99.90;;;;;;5053455;28;20422;-74
2022/03/02 07:04:27;;;;;;;23.15;9.88;;;11.80;99.90;;;;;;5035790;28;20048;-74
2022/03/02 07:06:55;;;;;;;23.65;10.38;;;11.80;99.90;;;;;;5059127;28;20033;-72
2022/03/02 07:09:23;;;;;;;16.48;9.55;;;11.80;99.90;;;;;;5035543;28;20091;-73
2022/03/02 07:11:49;;;;;;;20.83;10.35;;;11.80;99.90;;;;;;5039461;28;20021;-73
2022/03/02 07:14:16;;;;;;;23.30;11.35;;;11.80;99.90;;;;;;5045818;28;20778;-72
2022/03/02 07:16:45;;;;;;;19.45;10.63;;;11.90;99.90;;;;;;5041970;28;20026;-74
2022/03/02 07:19:13;;;;;;;22.95;10.88;;;11.90;99.90;;;;;;5035321;28;20065;-73
2022/03/02 07:21:43;;;;;;;28.02;11.50;;;12.00;99.90;;;;;;5043180;28;20386;-72
2022/03/02 07:24:19;;;;;;;27.08;11.93;;;12.00;99.90;;;;;;5052598;28;20366;-76
2022/03/02 07:26:50;;;;;;;24.13;10.60;;;12.10;99.90;;;;;;5054495;28;20029;-73
2022/03/02 07:29:16;;;;;;;21.60;10.75;;;12.10;99.90;;;;;;5042650;28;20046;-73
2022/03/02 07:31:43;;;;;;;25.10;11.63;;;12.10;99.90;;;;;;5058382;28;20065;-73
2022/03/02 07:34:14;;;;;;;26.92;11.38;;;12.10;99.90;;;;;;5058131;28;20641;-72
2022/03/02 07:36:41;;;;;;;24.33;11.35;;;12.10;99.90;;;;;;5043412;28;20458;-72
2022/03/02 07:39:11;;;;;;;20.63;11.57;;;12.00;99.90;;;;;;5058861;28;20068;-73
2022/03/02 07:41:37;;;;;;;22.30;11.80;;;12.10;99.90;;;;;;5045990;28;20037;-73
2022/03/02 07:44:05;;;;;;;30.10;12.98;;;12.10;99.90;;;;;;5033879;28;20052;-74
2022/03/02 07:46:32;;;;;;;22.77;12.40;;;12.10;99.90;;;;;;5056106;28;20044;-73
2022/03/02 07:49:00;;;;;;;21.15;12.18;;;12.20;99.90;;;;;;5049425;28;20064;-73
2022/03/02 07:51:26;;;;;;;28.20;12.68;;;12.20;99.90;;;;;;5021485;28;20037;-73
2022/03/02 07:54:01;;;;;;;25.38;12.07;;;12.20;99.90;;;;;;5038841;28;20631;-74
2022/03/02 07:56:29;;;;;;;23.40;12.88;;;12.20;99.90;;;;;;5052461;28;20075;-74
2022/03/02 07:59:07;;;;;;;26.42;15.60;;;12.20;99.90;;;;;;5059015;28;20124;-73
2022/03/02 08:01:34;;;;;;;25.50;13.02;;;12.20;99.90;;;;;;5055991;28;20040;-73
2022/03/02 08:04:08;;;;;;;27.33;12.00;;;12.30;99.90;;;;;;5055488;28;20037;-73
2022/03/02 08:06:37;;;;;;;22.77;12.00;;;12.40;99.90;;;;;;5016851;28;20598;-72
2022/03/02 08:09:05;;;;;;;24.17;11.27;;;12.40;99.90;;;;;;5035738;28;20041;-73
2022/03/02 08:11:33;;;;;;;25.52;11.60;;;12.40;99.90;;;;;;5024842;28;20061;-75
2022/03/02 08:14:00;;;;;;;18.73;10.82;;;12.40;99.90;;;;;;5040048;28;20057;-73
2022/03/02 08:16:29;;;;;;;23.77;11.77;;;12.50;99.90;;;;;;5052425;28;20085;-73
2022/03/02 08:18:56;;;;;;;24.35;11.15;;;12.60;99.90;;;;;;5041647;28;20041;-73
2022/03/02 08:21:26;;;;;;;30.55;12.35;;;12.70;99.90;;;;;;5054843;28;20230;-72
2022/03/02 08:23:57;;;;;;;26.25;12.00;;;12.70;99.90;;;;;;5044665;28;20472;-73
2022/03/02 08:26:25;;;;;;;25.42;11.38;;;12.70;99.90;;;;;;5053218;28;20587;-74
2022/03/02 08:28:58;;;;;;;21.75;11.30;;;12.70;99.90;;;;;;5073708;28;20037;-73
2022/03/02 08:31:25;;;;;;;27.67;11.52;;;12.80;99.90;;;;;;5039524;28;20040;-73
2022/03/02 08:33:53;;;;;;;28.13;11.48;;;12.90;99.90;;;;;;5057631;28;20029;-75
2022/03/02 08:36:21;;;;;;;25.50;11.38;;;12.90;99.90;;;;;;5053842;28;20135;-73
2022/03/02 08:38:52;;;;;;;22.23;11.95;;;12.80;99.90;;;;;;5037252;28;20045;-74
2022/03/02 08:41:20;;;;;;;26.00;10.45;;;12.60;99.90;;;;;;5058769;28;20477;-75
2022/03/02 08:43:47;;;;;;;23.65;10.95;;;12.60;99.90;;;;;;5038528;28;20045;-73
2022/03/02 08:46:14;;;;;;;20.23;10.65;;;12.70;99.90;;;;;;5037144;28;20045;-76
2022/03/02 08:48:40;;;;;;;26.55;10.95;;;12.60;99.90;;;;;;5037730;28;20563;-74
2022/03/02 08:51:08;;;;;;;27.50;11.45;;;12.60;99.90;;;;;;5041992;28;20044;-74
2022/03/02 08:53:34;;;;;;;23.45;10.20;;;12.50;99.90;;;;;;5037021;28;20037;-73
2022/03/02 08:56:06;;;;;;;27.90;11.40;;;12.50;99.90;;;;;;5033622;28;20033;-73
2022/03/02 08:58:33;;;;;;;28.25;10.95;;;12.30;99.90;;;;;;5037979;28;20037;-73
2022/03/02 09:01:02;;;;;;;24.27;11.30;;;12.30;99.90;;;;;;5037882;28;20363;-73
2022/03/02 09:03:34;;;;;;;28.30;11.10;;;12.40;99.90;;;;;;5045680;28;20037;-73
2022/03/02 09:06:02;;;;;;;23.92;9.73;;;12.30;99.90;;;;;;5039173;28;20032;-72
2022/03/02 09:08:29;;;;;;;26.13;10.20;;;12.40;99.90;;;;;;5040788;28;20033;-73
2022/03/02 09:10:56;;;;;;;22.08;9.82;;;12.40;99.90;;;;;;5035035;28;20124;-72
2022/03/02 09:13:23;;;;;;;23.58;10.32;;;12.30;99.90;;;;;;5043274;28;20037;-74
2022/03/02 09:15:49;;;;;;;24.10;10.75;;;12.30;99.90;;;;;;5028780;28;20155;-74
2022/03/02 09:18:15;;;;;;;27.58;11.02;;;12.20;99.90;;;;;;5040475;28;20448;-75
2022/03/02 09:20:42;;;;;;;30.35;11.65;;;12.30;99.90;;;;;;5043910;28;20033;-74
2022/03/02 09:23:10;;;;;;;28.40;11.68;;;12.30;99.90;;;;;;5037492;28;20080;-72
2022/03/02 09:25:38;;;;;;;31.50;11.95;;;12.20;99.90;;;;;;5042841;28;20041;-74
2022/03/02 09:28:08;;;;;;;29.83;11.60;;;12.30;99.90;;;;;;5044868;28;20041;-73
2022/03/02 09:30:34;;;;;;;31.05;11.18;;;12.30;99.90;;;;;;5052125;28;20033;-73
2022/03/02 09:33:01;;;;;;;25.67;11.52;;;12.20;99.90;;;;;;5039044;28;20124;-73
2022/03/02 09:35:28;;;;;;;20.58;10.85;;;12.30;99.90;;;;;;5037063;28;20506;-73
2022/03/02 09:37:56;;;;;;;28.15;11.05;;;12.30;99.90;;;;;;5036531;28;20056;-72
2022/03/02 09:40:30;;;;;;;31.38;11.60;;;12.40;99.90;;;;;;5054563;28;20599;-73
2022/03/02 09:42:59;;;;;;;29.63;11.73;;;12.50;99.90;;;;;;5033394;28;20095;-74
2022/03/02 09:45:27;;;;;;;27.75;11.30;;;12.50;99.90;;;;;;5041236;28;20569;-72
2022/03/02 09:47:56;;;;;;;30.52;10.73;;;12.40;99.90;;;;;;5053419;28;20715;-77
2022/03/02 09:50:24;;;;;;;28.33;11.52;;;12.40;99.90;;;;;;5037991;28;20041;-73
2022/03/02 09:52:54;;;;;;;30.00;11.30;;;12.40;99.90;;;;;;5052083;28;20044;-72
2022/03/02 09:55:25;;;;;;;34.22;12.32;;;12.40;99.90;;;;;;5037139;28;20042;-74
2022/03/02 09:57:56;;;;;;;28.75;11.75;;;12.50;99.90;;;;;;5050491;28;20385;-73
2022/03/02 10:00:25;;;;;;;28.27;10.88;;;12.50;99.90;;;;;;5039856;28;20145;-73
2022/03/02 10:02:57;;;;;;;23.92;11.43;;;12.50;99.90;;;;;;5040880;28;20649;-72
2022/03/02 10:05:34;;;;;;;30.50;12.00;;;12.50;99.90;;;;;;5042072;28;20037;-73
2022/03/02 10:08:08;;;;;;;29.23;11.00;;;12.50;99.90;;;;;;5051666;28;20111;-72
2022/03/02 10:10:37;;;;;;;25.15;11.57;;;12.50;99.90;;;;;;5028470;28;20040;-74
2022/03/02 10:13:10;;;;;;;25.55;11.80;;;12.50;99.90;;;;;;5035355;28;20033;-72
2022/03/02 10:15:36;;;;;;;;;;;12.50;99.90;;;;;;5035618;28;20037;-74
2022/03/02 10:18:04;;;;;;;31.67;12.02;;;12.60;99.90;;;;;;5034612;28;20326;-74
2022/03/02 10:20:33;;;;;;;21.60;11.05;;;12.60;99.90;;;;;;5035562;28;20045;-72
2022/03/02 10:23:30;;;;;;;31.38;11.68;;;12.50;99.90;;;;;;5040453;28;20055;-74
2022/03/02 10:26:19;;;;;;;26.20;10.80;;;12.60;99.90;;;;;;5042972;28;20044;-73
2022/03/02 10:29:08;;;;;;;21.40;10.13;;;12.70;99.90;;;;;;5014365;28;20049;-71
2022/03/02 10:32:05;;;;;;;22.65;10.65;;;12.70;99.90;;;;;;5010807;28;20448;-72
2022/03/02 10:34:33;;;;;;;23.67;8.52;;;12.80;99.90;;;;;;5035401;28;20090;-72
2022/03/02 10:37:08;;;;;;;28.80;10.15;;;12.70;99.90;;;;;;5034120;28;20040;-72
2022/03/02 10:39:54;;;;;;;20.13;8.88;;;12.80;99.90;;;;;;5035567;28;20094;-73
2022/03/02 10:42:26;;;;;;;25.00;9.70;;;12.80;99.90;;;;;;5033090;28;20049;-73
2022/03/02 10:45:10;;;;;;;27.67;10.13;;;12.80;99.90;;;;;;5051138;28;20025;-74
2022/03/02 10:48:01;;;;;;;24.90;9.00;;;12.80;99.90;;;;;;5034329;28;20045;-72
2022/03/02 10:50:34;;;;;;;26.77;10.07;;;12.60;99.90;;;;;;5031027;28;20033;-73
2022/03/02 10:53:03;;;;;;;21.90;9.50;;;12.50;99.90;;;;;;5036053;28;20029;-72
2022/03/02 10:55:32;;;;;;;20.55;9.20;;;12.80;99.90;;;;;;5036600;28;20029;-72
2022/03/02 10:58:02;;;;;;;23.70;9.65;;;12.90;99.90;;;;;;5050391;28;20048;-72
2022/03/02 11:00:28;;;;;;;24.17;8.73;;;13.10;99.90;;;;;;5034713;28;20041;-72
2022/03/02 11:02:59;;;;;;;21.30;8.98;;;13.10;99.90;;;;;;5036361;28;20159;-73
2022/03/02 11:05:31;;;;;;;24.77;9.02;;;12.80;99.90;;;;;;5065519;28;20435;-73
2022/03/02 11:07:58;;;;;;;24.17;9.40;;;12.80;99.90;;;;;;5034711;28;20794;-73
2022/03/02 11:10:37;;;;;;;20.27;8.85;;;13.00;99.90;;;;;;5033103;28;20095;-72
2022/03/02 11:13:13;;;;;;;24.35;8.90;;;12.80;99.90;;;;;;5048898;28;20457;-74
2022/03/02 11:16:00;;;;;;;28.98;8.63;;;12.90;99.90;;;;;;5035483;28;20120;-72
2022/03/02 11:18:35;;;;;;;20.67;8.60;;;13.00;99.90;;;;;;5035522;28;20559;-74
2022/03/02 11:21:09;;;;;;;28.02;9.30;;;12.90;99.90;;;;;;5051137;28;20044;-75
2022/03/02 11:23:47;;;;;;;21.20;8.43;;;12.70;99.90;;;;;;5030254;28;20056;-74
2022/03/02 11:26:18;;;;;;;22.55;9.18;;;12.80;99.90;;;;;;5043101;28;20365;-74
2022/03/02 11:29:11;;;;;;;23.85;9.05;;;12.80;99.90;;;;;;5021408;28;20045;-73
2022/03/02 11:31:47;;;;;;;31.00;10.52;;;12.80;99.90;;;;;;5034360;28;20456;-75
2022/03/02 11:34:25;;;;;;;23.20;9.35;;;12.80;99.90;;;;;;5034613;28;20149;-76
2022/03/02 11:36:56;;;;;;;21.73;8.88;;;12.80;99.90;;;;;;5034568;28;20129;-73
2022/03/02 11:39:25;;;;;;;25.75;10.45;;;12.90;99.90;;;;;;5046622;28;20145;-73
2022/03/02 11:41:56;;;;;;;26.00;9.23;;;13.00;99.90;;;;;;5044852;28;20046;-72
2022/03/02 11:44:35;;;;;;;25.33;9.30;;;13.10;99.90;;;;;;5048339;28;20619;-72
2022/03/02 11:47:05;;;;;;;28.15;10.20;;;13.20;99.90;;;;;;5046284;28;20053;-72
2022/03/02 11:49:49;;;;;;;20.25;9.25;;;13.00;99.90;;;;;;5032173;28;20025;-73
2022/03/02 11:52:17;;;;;;;27.67;9.95;;;13.10;99.90;;;;;;5030307;28;20308;-73
2022/03/02 11:54:51;;;;;;;25.45;9.00;;;13.20;99.90;;;;;;5031140;28;20033;-71
2022/03/02 11:57:19;;;;;;;23.42;9.88;;;13.20;99.90;;;;;;5046442;28;20041;-72
2022/03/02 11:59:46;;;;;;;23.95;10.18;;;13.10;99.90;;;;;;5048289;28;20061;-74
2022/03/02 12:02:19;;;;;;;20.90;10.15;;;13.20;99.90;;;;;;5034308;28;20037;-73
2022/03/02 12:05:05;;;;;;;22.75;10.35;;;13.30;99.90;;;;;;5019560;28;20041;-72
2022/03/02 12:07:46;;;;;;;20.13;8.65;;;13.30;99.90;;;;;;5030238;28;20096;-73
2022/03/02 12:10:22;;;;;;;25.30;9.20;;;13.20;99.90;;;;;;5046165;28;20037;-73
2022/03/02 12:12:50;;;;;;;29.80;9.80;;;13.30;99.90;;;;;;5033066;28;20045;-72
2022/03/02 12:15:17;;;;;;;27.40;9.23;;;13.40;99.90;;;;;;5028868;28;20552;-73
2022/03/02 12:17:43;;;;;;;26.05;9.70;;;13.40;99.90;;;;;;5030147;28;20134;-74
2022/03/02 12:20:15;;;;;;;21.95;8.30;;;13.60;99.90;;;;;;5033288;28;20033;-76
2022/03/02 12:22:42;;;;;;;25.08;8.55;;;13.40;99.90;;;;;;5047595;28;20123;-73
2022/03/02 12:25:13;;;;;;;26.92;9.20;;;13.50;99.90;;;;;;5041349;28;20095;-71
2022/03/02 12:27:42;;;;;;;24.50;9.07;;;13.50;99.90;;;;;;5032183;28;20056;-75
2022/03/02 12:30:11;;;;;;;29.10;9.60;;;13.30;99.90;;;;;;5043501;28;20036;-73
2022/03/02 12:32:40;;;;;;;26.48;10.55;;;13.40;99.90;;;;;;5031804;28;20037;-74
2022/03/02 12:35:09;;;;;;;23.15;9.65;;;13.40;99.90;;;;;;5018992;28;20045;-72
2022/03/02 12:37:36;;;;;;;31.00;10.10;;;13.40;99.90;;;;;;5047044;28;20412;-74
2022/03/02 12:40:06;;;;;;;26.10;10.45;;;13.30;99.90;;;;;;5032014;28;20492;-75
2022/03/02 12:42:33;;;;;;;23.30;10.38;;;13.30;99.90;;;;;;5033678;28;20120;-75